Pagrindinis puslapis
METAR-TAF:

METAR-TAF

Oro uostai :

Laė, Papua Naujoji Gvinėja

platuma: 6-34-11S, ilguma: 146-43-34E, Aukštis: 73 m

Dabartinis oras

Ataskaita buvo paskelbta 2 valandos ir 33 minutes, ne 08:00 UTC
Vėjas 5 kt iš Rytų/Šiaurės Rytų su gūsio iki 10 kt
Temperatūra 26°C
Drėgmė 84%
Slėgis 1009 hPa
Matomumas 10 km arba daugiau
Mažai debesys ne aukštis 2000 ft
Su prošvaistėmis ne aukštis 6000 ft

METAR: AYNZ 220800Z 06005G10KT 9999 FEW020 BKN060 26/23 Q1009.

Laikas: 20:33 (10:33 UTC)


TAF: trūkstamas

Orai ataskaitas ir orų prognozės (METAR, TAF).

turimą stotys yra geltonos ir raudonos taškus žemėlapyje.

Perkelti pele per norėdami pamatyti stoties vardą.

Tada spustelėkite, norėdami matyti oro stebėjimo ir prognozės.

Norėdami pakeisti žemėlapį: spustelėkite ant žalios mygtukų su juodo kryžiaus žemyn,; žalią mygtuką su brūkšneliu, jei norite nutolinti; arba žalių rodyklių gretimoms žemėlapius.


METAR-TAF: